Time;durP1;ratioP1;P1;durP2;ratioP2;P2;SDS_P1;SDS_P2;PMS_P1;PMS_P2;Temp;Humidity;BMP_temperature;BMP_pressure;BME280_temperature;BME280_humidity;BME280_pressure;Samples;Min_cycle;Max_cycle;Signal;HPM_P1;HPM_P2
2023/01/10 00:01:43;;;;;;;208.70;201.37;;;5.50;99.90;;;;;;5001070;28;20465;-81
2023/01/10 00:04:09;;;;;;;157.73;152.20;;;5.50;99.90;;;;;;5001317;28;20461;-83
2023/01/10 00:06:36;;;;;;;160.53;154.40;;;5.50;99.90;;;;;;5000938;28;20478;-82
2023/01/10 00:09:03;;;;;;;205.77;198.83;;;5.60;99.90;;;;;;5001149;28;20461;-81
2023/01/10 00:14:16;;;;;;;233.97;225.97;;;5.70;99.90;;;;;;5001023;28;20437;-81
2023/01/10 00:16:42;;;;;;;203.20;195.67;;;5.70;99.90;;;;;;5000401;28;20482;-82
2023/01/10 00:19:10;;;;;;;135.33;129.77;;;5.90;99.90;;;;;;5000590;28;20481;-81
2023/01/10 00:21:38;;;;;;;96.73;93.03;;;6.00;99.90;;;;;;5001468;28;20449;-81
2023/01/10 00:24:16;;;;;;;67.90;65.13;;;6.10;99.90;;;;;;5000715;28;20457;-81
2023/01/10 00:26:45;;;;;;;55.43;53.13;;;6.20;99.90;;;;;;5000406;28;20509;-83
2023/01/10 00:29:12;;;;;;;55.53;52.60;;;6.20;99.90;;;;;;5001495;28;20454;-81
2023/01/10 00:31:40;;;;;;;52.63;50.13;;;6.20;99.90;;;;;;5000931;28;20481;-82
2023/01/10 00:34:07;;;;;;;47.40;45.50;;;6.20;99.90;;;;;;5000825;28;20867;-82
2023/01/10 00:36:34;;;;;;;40.70;38.70;;;6.20;99.90;;;;;;5000545;28;21004;-81
2023/01/10 00:39:01;;;;;;;38.27;36.50;;;6.30;99.90;;;;;;5001163;28;20490;-82
2023/01/10 00:44:12;;;;;;;33.97;32.30;;;6.30;99.90;;;;;;5000972;28;20464;-81
2023/01/10 00:46:40;;;;;;;31.17;29.53;;;6.30;99.90;;;;;;5004504;28;20466;-82
2023/01/10 00:49:08;;;;;;;30.30;28.23;;;6.30;99.90;;;;;;5004313;28;20456;-81
2023/01/10 00:51:35;;;;;;;25.40;24.10;;;6.30;99.90;;;;;;5004246;28;20952;-81
2023/01/10 00:54:01;;;;;;;22.33;20.57;;;6.30;99.90;;;;;;5004367;28;20464;-83
2023/01/10 00:56:28;;;;;;;20.67;18.93;;;6.30;99.90;;;;;;5004250;28;20473;-81
2023/01/10 00:58:55;;;;;;;21.00;19.30;;;6.30;99.90;;;;;;5003726;28;20493;-81
2023/01/10 01:01:22;;;;;;;20.37;19.10;;;6.20;99.90;;;;;;5003729;28;20462;-81
2023/01/10 01:03:50;;;;;;;21.60;20.10;;;6.20;99.90;;;;;;5003901;28;20460;-80
2023/01/10 01:06:16;;;;;;;22.20;20.50;;;6.30;99.90;;;;;;5004172;28;20474;-81
2023/01/10 01:08:43;;;;;;;22.37;20.90;;;6.20;99.90;;;;;;5003943;28;20492;-80
2023/01/10 01:11:10;;;;;;;23.53;21.30;;;6.20;99.90;;;;;;5004147;28;20454;-81
2023/01/10 01:13:37;;;;;;;21.63;20.23;;;6.20;99.90;;;;;;5004094;28;20457;-82
2023/01/10 01:16:04;;;;;;;19.80;18.10;;;6.20;99.90;;;;;;5003436;28;20482;-81
2023/01/10 01:18:31;;;;;;;17.57;15.90;;;6.30;99.90;;;;;;5003790;28;20477;-81
2023/01/10 01:21:02;;;;;;;17.70;15.83;;;6.20;99.90;;;;;;5003924;28;20556;-79
2023/01/10 01:23:29;;;;;;;16.93;15.30;;;6.20;99.90;;;;;;5003839;28;20449;-82
2023/01/10 01:25:57;;;;;;;15.10;14.00;;;6.20;99.90;;;;;;5003366;28;20474;-81
2023/01/10 01:28:24;;;;;;;15.73;14.17;;;6.20;99.90;;;;;;5004224;28;20504;-81
2023/01/10 01:30:51;;;;;;;14.87;13.70;;;6.20;99.90;;;;;;5003387;28;20458;-81
2023/01/10 01:33:18;;;;;;;15.70;14.50;;;6.20;99.90;;;;;;5003221;28;20458;-81
2023/01/10 01:35:47;;;;;;;14.13;12.50;;;6.20;99.90;;;;;;5003952;28;20470;-82
2023/01/10 01:38:16;;;;;;;13.03;11.87;;;6.30;99.90;;;;;;5003717;28;20461;-81
2023/01/10 01:40:43;;;;;;;11.10;10.10;;;6.20;99.90;;;;;;5003843;28;20454;-82
2023/01/10 01:43:23;;;;;;;15.97;9.70;;;6.30;99.90;;;;;;5003701;28;21019;-81
2023/01/10 01:45:50;;;;;;;11.20;10.47;;;6.30;99.90;;;;;;5003356;28;20473;-82
2023/01/10 01:48:23;;;;;;;12.70;8.90;;;6.30;99.90;;;;;;5003623;28;20536;-81
2023/01/10 01:50:55;;;;;;;12.77;8.27;;;6.30;99.90;;;;;;5003522;28;20976;-81
2023/01/10 01:53:29;;;;;;;14.50;8.63;;;6.40;99.90;;;;;;5003186;28;20557;-80
2023/01/10 01:56:00;;;;;;;17.67;8.43;;;6.30;99.90;;;;;;5002267;28;20486;-82
2023/01/10 01:58:31;;;;;;;11.53;6.20;;;6.20;99.90;;;;;;5002726;28;20454;-82
2023/01/10 02:00:58;;;;;;;12.97;7.37;;;6.10;99.90;;;;;;5003278;28;20454;-83
2023/01/10 02:03:26;;;;;;;8.40;6.70;;;6.00;99.90;;;;;;5003543;28;20458;-82
2023/01/10 02:05:53;;;;;;;11.23;8.07;;;5.80;99.90;;;;;;5002778;28;20469;-82
2023/01/10 02:08:20;;;;;;;11.87;8.70;;;5.70;99.90;;;;;;5003431;28;20469;-82
2023/01/10 02:10:53;;;;;;;15.17;13.97;;;5.60;99.90;;;;;;5002706;28;20458;-82
2023/01/10 02:13:23;;;;;;;18.63;17.50;;;5.40;99.90;;;;;;5003153;28;20451;-81
2023/01/10 02:15:50;;;;;;;26.30;25.00;;;5.40;99.90;;;;;;5002485;28;20482;-81
2023/01/10 02:18:17;;;;;;;39.57;37.37;;;5.20;99.90;;;;;;5002935;28;20462;-81
2023/01/10 02:21:00;;;;;;;52.27;49.77;;;5.10;99.90;;;;;;5002483;28;20469;-81
2023/01/10 02:23:50;;;;;;;100.40;95.60;;;5.00;99.90;;;;;;5002680;28;20450;-83
2023/01/10 02:26:55;;;;;;;144.57;138.63;;;4.90;99.90;;;;;;5002699;28;20477;-82
2023/01/10 02:29:53;;;;;;;150.10;144.63;;;5.00;99.90;;;;;;5002561;28;20457;-82
2023/01/10 02:32:31;;;;;;;169.73;163.67;;;5.00;99.90;;;;;;5003358;28;20458;-82
2023/01/10 02:35:10;;;;;;;164.67;158.57;;;5.10;99.90;;;;;;5002058;28;21046;-82
2023/01/10 02:37:44;;;;;;;122.90;117.53;;;5.20;99.90;;;;;;5002960;28;20476;-81
2023/01/10 02:40:20;;;;;;;120.40;115.30;;;5.30;99.90;;;;;;5002490;28;20482;-83
2023/01/10 02:42:54;;;;;;;101.77;96.33;;;5.30;99.90;;;;;;5001927;28;20460;-81
2023/01/10 02:45:29;;;;;;;85.87;82.10;;;5.30;99.90;;;;;;5002418;28;20485;-81
2023/01/10 02:47:58;;;;;;;71.33;68.30;;;5.20;99.90;;;;;;5002886;28;20837;-82
2023/01/10 02:50:43;;;;;;;68.10;65.20;;;5.10;99.90;;;;;;5002530;28;20454;-81
2023/01/10 02:53:15;;;;;;;70.97;67.57;;;5.10;99.90;;;;;;5002926;28;20464;-82
2023/01/10 02:55:59;;;;;;;76.60;73.73;;;5.00;99.90;;;;;;5001881;28;20470;-82
2023/01/10 02:58:38;;;;;;;81.67;78.27;;;5.00;99.90;;;;;;5002077;28;20453;-82
2023/01/10 03:01:14;;;;;;;95.83;92.33;;;4.80;99.90;;;;;;5002003;28;20458;-81
2023/01/10 03:03:49;;;;;;;117.93;113.73;;;4.80;99.90;;;;;;5001902;28;20468;-81
2023/01/10 03:06:25;;;;;;;127.23;122.03;;;4.80;99.90;;;;;;5001938;28;20480;-82
2023/01/10 03:08:59;;;;;;;92.37;88.57;;;4.80;99.90;;;;;;5000350;28;20458;-82
2023/01/10 03:11:39;;;;;;;99.37;94.87;;;5.00;99.90;;;;;;5001542;28;20458;-81
2023/01/10 03:14:12;;;;;;;92.17;88.30;;;5.10;99.90;;;;;;5001920;28;20453;-81
2023/01/10 03:16:41;;;;;;;59.73;56.70;;;5.20;99.90;;;;;;5001653;28;20478;-81
2023/01/10 03:19:12;;;;;;;52.53;49.60;;;5.20;99.90;;;;;;5001869;28;20565;-81
2023/01/10 03:21:43;;;;;;;49.87;47.27;;;5.10;99.90;;;;;;5001643;28;20484;-83
2023/01/10 03:24:16;;;;;;;47.37;44.57;;;5.00;99.90;;;;;;5002125;28;20458;-82
2023/01/10 03:26:47;;;;;;;57.57;54.60;;;4.90;99.90;;;;;;5001129;28;20481;-81
2023/01/10 03:29:19;;;;;;;68.80;65.30;;;4.80;99.90;;;;;;5002100;28;20847;-82
2023/01/10 03:31:51;;;;;;;82.00;78.50;;;4.70;99.90;;;;;;5001845;28;20450;-82
2023/01/10 03:34:20;;;;;;;93.83;88.57;;;4.60;99.90;;;;;;5002204;28;20458;-82
2023/01/10 03:36:52;;;;;;;104.67;100.47;;;4.60;99.90;;;;;;5000937;28;20476;-83
2023/01/10 03:39:23;;;;;;;112.30;107.17;;;4.50;99.90;;;;;;5002097;28;20478;-83
2023/01/10 03:41:59;;;;;;;124.83;120.23;;;4.60;99.90;;;;;;5002404;28;20465;-83
2023/01/10 03:44:42;;;;;;;110.93;106.43;;;4.70;99.90;;;;;;5003058;28;20453;-83
2023/01/10 03:47:13;;;;;;;132.90;127.83;;;4.70;99.90;;;;;;5001970;28;20464;-83
2023/01/10 03:49:46;;;;;;;128.00;123.43;;;4.60;99.90;;;;;;5002382;28;20450;-83
2023/01/10 03:52:16;;;;;;;144.50;139.43;;;4.60;99.90;;;;;;5001442;28;20454;-83
2023/01/10 03:54:43;;;;;;;158.47;152.17;;;4.60;99.90;;;;;;5001587;28;20491;-83
2023/01/10 03:57:17;;;;;;;193.80;187.10;;;4.50;99.90;;;;;;5001346;28;20961;-84
2023/01/10 03:59:44;;;;;;;213.77;205.87;;;4.50;99.90;;;;;;5001654;28;20509;-83
2023/01/10 04:02:11;;;;;;;225.37;216.77;;;4.50;99.90;;;;;;5001957;28;20458;-83
2023/01/10 04:04:38;;;;;;;226.73;217.97;;;4.50;99.90;;;;;;5002525;28;20877;-83
2023/01/10 04:07:06;;;;;;;233.50;224.00;;;4.50;99.90;;;;;;5002056;28;20457;-83
2023/01/10 04:09:33;;;;;;;213.57;205.37;;;4.60;99.90;;;;;;5002078;28;20454;-83
2023/01/10 04:11:59;;;;;;;213.43;205.00;;;4.80;99.90;;;;;;5002986;28;20454;-83
2023/01/10 04:14:27;;;;;;;185.87;178.97;;;4.90;99.90;;;;;;5002606;28;20464;-83
2023/01/10 04:16:54;;;;;;;160.67;154.67;;;5.00;99.90;;;;;;5002418;28;20485;-83
2023/01/10 04:19:20;;;;;;;136.70;131.33;;;5.10;99.90;;;;;;5002449;28;20482;-83
2023/01/10 04:21:47;;;;;;;113.67;109.20;;;5.10;99.90;;;;;;5003067;28;20844;-85
2023/01/10 04:24:15;;;;;;;95.10;91.00;;;5.20;99.90;;;;;;5002155;28;20465;-83
2023/01/10 04:26:43;;;;;;;84.17;80.27;;;5.30;99.90;;;;;;5001427;28;20537;-84
2023/01/10 04:29:10;;;;;;;69.40;66.00;;;5.30;99.90;;;;;;5002417;28;20454;-84
2023/01/10 04:31:38;;;;;;;56.60;53.17;;;5.30;99.90;;;;;;5002066;28;20462;-83
2023/01/10 04:34:05;;;;;;;43.53;41.17;;;5.30;99.90;;;;;;5002177;28;20478;-82
2023/01/10 04:36:32;;;;;;;38.07;36.00;;;5.30;99.90;;;;;;5000599;28;20476;-86
2023/01/10 04:38:59;;;;;;;36.73;33.93;;;5.40;99.90;;;;;;5000821;28;20521;-84
2023/01/10 04:41:27;;;;;;;29.33;27.27;;;5.40;99.90;;;;;;5000261;28;20956;-83
2023/01/10 04:43:54;;;;;;;28.27;26.43;;;5.40;99.90;;;;;;5002210;28;20454;-85
2023/01/10 04:46:21;;;;;;;23.93;21.60;;;5.40;99.90;;;;;;5000126;28;20478;-84
2023/01/10 04:48:48;;;;;;;29.37;21.20;;;5.50;99.90;;;;;;5001883;28;20458;-84
2023/01/10 04:51:14;;;;;;;19.83;18.20;;;5.50;99.90;;;;;;5001826;28;20449;-84
2023/01/10 04:53:41;;;;;;;20.13;18.73;;;5.50;99.90;;;;;;5001792;28;20966;-84
2023/01/10 04:56:14;;;;;;;18.53;17.13;;;5.40;99.90;;;;;;5000849;28;20489;-84
2023/01/10 04:58:42;;;;;;;18.83;16.73;;;5.50;99.90;;;;;;5002436;28;20518;-84
2023/01/10 05:01:10;;;;;;;16.37;14.70;;;5.50;99.90;;;;;;5001334;28;20570;-84
2023/01/10 05:03:37;;;;;;;15.13;13.27;;;5.50;99.90;;;;;;5001314;28;20461;-83
2023/01/10 05:06:05;;;;;;;13.83;12.53;;;5.40;99.90;;;;;;5000832;28;20484;-84
2023/01/10 05:08:32;;;;;;;13.70;12.40;;;5.30;99.90;;;;;;5001033;28;20468;-83
2023/01/10 05:10:59;;;;;;;17.43;12.73;;;5.30;99.90;;;;;;4999970;28;20450;-84
2023/01/10 05:13:26;;;;;;;18.37;13.43;;;5.10;99.90;;;;;;5000609;28;20454;-83
2023/01/10 05:15:56;;;;;;;21.93;20.00;;;4.90;99.90;;;;;;5000338;28;20496;-83
2023/01/10 05:18:23;;;;;;;29.00;26.50;;;4.80;99.90;;;;;;5001456;28;20766;-84
2023/01/10 05:20:50;;;;;;;44.37;41.47;;;4.70;99.90;;;;;;5000394;28;20501;-83
2023/01/10 05:23:17;;;;;;;68.00;63.97;;;4.60;99.90;;;;;;5000624;28;20461;-83
2023/01/10 05:25:44;;;;;;;104.80;99.17;;;4.50;99.90;;;;;;5000951;28;20484;-83
2023/01/10 05:28:10;;;;;;;139.23;132.17;;;4.50;99.90;;;;;;5001100;28;20458;-83
2023/01/10 05:30:37;;;;;;;137.83;132.53;;;4.40;99.90;;;;;;5000902;28;20454;-84
2023/01/10 05:33:06;;;;;;;195.37;187.90;;;4.30;99.90;;;;;;5003978;28;20454;-83
2023/01/10 05:35:33;;;;;;;214.30;205.83;;;4.40;99.90;;;;;;5004085;28;20474;-84
2023/01/10 05:37:59;;;;;;;217.87;209.07;;;4.40;99.90;;;;;;5003427;28;20458;-83
2023/01/10 05:40:26;;;;;;;216.63;208.37;;;4.40;99.90;;;;;;5003303;28;20485;-85
2023/01/10 05:42:53;;;;;;;219.67;210.50;;;4.50;99.90;;;;;;5003533;28;20464;-84
2023/01/10 05:45:20;;;;;;;199.87;192.07;;;4.40;99.90;;;;;;5003339;28;20466;-83
2023/01/10 05:47:47;;;;;;;211.70;203.50;;;4.40;99.90;;;;;;5003908;28;20454;-85
2023/01/10 05:50:15;;;;;;;230.43;219.77;;;4.40;99.90;;;;;;5004925;28;20889;-83
2023/01/10 05:52:42;;;;;;;245.60;236.00;;;4.30;99.90;;;;;;5004553;28;20458;-83
2023/01/10 05:55:09;;;;;;;251.77;241.27;;;4.20;99.90;;;;;;5004689;28;20476;-85
2023/01/10 05:57:36;;;;;;;262.80;251.30;;;4.20;99.90;;;;;;5003837;28;20478;-83
2023/01/10 06:00:05;;;;;;;259.37;248.70;;;4.20;99.90;;;;;;5004327;28;20470;-83
2023/01/10 06:02:32;;;;;;;279.20;267.17;;;4.30;99.90;;;;;;5004642;28;20458;-85
2023/01/10 06:04:59;;;;;;;283.73;271.00;;;4.30;99.90;;;;;;5004113;28;20477;-83
2023/01/10 06:07:27;;;;;;;240.13;230.00;;;4.40;99.90;;;;;;5004263;28;20458;-83
2023/01/10 06:09:53;;;;;;;224.50;214.70;;;4.50;99.90;;;;;;5004432;28;20450;-84
2023/01/10 06:12:21;;;;;;;202.13;193.77;;;4.50;99.90;;;;;;5004004;28;20458;-84
2023/01/10 06:14:47;;;;;;;203.20;193.60;;;4.60;99.90;;;;;;5004454;28;20962;-83
2023/01/10 06:17:14;;;;;;;202.97;194.47;;;4.70;99.90;;;;;;5004604;28;20454;-84
2023/01/10 06:19:41;;;;;;;171.77;164.67;;;4.70;99.90;;;;;;5004719;28;20817;-83
2023/01/10 06:22:07;;;;;;;154.53;147.93;;;4.80;99.90;;;;;;5004109;28;20446;-84
2023/01/10 06:24:35;;;;;;;140.70;134.70;;;4.80;99.90;;;;;;5002906;28;20835;-84
2023/01/10 06:27:02;;;;;;;137.67;131.57;;;4.80;99.90;;;;;;5002940;28;20462;-85
2023/01/10 06:29:29;;;;;;;123.80;118.73;;;4.80;99.90;;;;;;5004815;28;20458;-83
2023/01/10 06:31:56;;;;;;;117.93;110.63;;;4.90;99.90;;;;;;5004948;28;20458;-84
2023/01/10 06:34:22;;;;;;;84.07;80.47;;;5.00;99.90;;;;;;5004982;28;20460;-85
2023/01/10 06:36:49;;;;;;;67.80;64.53;;;5.00;99.90;;;;;;5003837;28;20474;-84
2023/01/10 06:39:16;;;;;;;57.93;54.47;;;4.90;99.90;;;;;;5005372;28;20819;-85
2023/01/10 06:41:44;;;;;;;63.50;60.10;;;4.80;99.90;;;;;;5003866;28;20486;-83
2023/01/10 06:44:11;;;;;;;65.53;61.33;;;4.80;99.90;;;;;;5003757;28;20987;-83
2023/01/10 06:46:37;;;;;;;84.67;79.93;;;4.60;99.90;;;;;;5004516;28;20561;-84
2023/01/10 06:49:04;;;;;;;88.97;84.50;;;4.60;99.90;;;;;;5005301;28;20466;-83
2023/01/10 06:51:31;;;;;;;108.33;103.70;;;4.70;99.90;;;;;;5005252;28;20462;-84
2023/01/10 06:53:58;;;;;;;121.27;115.97;;;4.50;99.90;;;;;;5005857;28;20454;-84
2023/01/10 06:56:24;;;;;;;140.87;134.27;;;4.40;99.90;;;;;;5005340;28;20474;-83
2023/01/10 06:58:52;;;;;;;157.20;151.00;;;4.40;99.90;;;;;;5006170;28;20461;-84
2023/01/10 07:01:21;;;;;;;191.97;181.93;;;4.20;99.90;;;;;;5004896;28;20490;-83
2023/01/10 07:03:48;;;;;;;200.87;192.67;;;4.30;99.90;;;;;;5004437;28;20458;-83
2023/01/10 07:06:15;;;;;;;190.17;182.23;;;4.20;99.90;;;;;;5003246;28;20477;-84
2023/01/10 07:08:44;;;;;;;196.20;189.07;;;4.20;99.90;;;;;;5007816;28;20918;-83
2023/01/10 07:11:12;;;;;;;229.67;219.57;;;4.20;99.90;;;;;;5007086;28;20446;-84
2023/01/10 07:13:39;;;;;;;256.20;243.67;;;4.10;99.90;;;;;;5005253;28;20488;-84
2023/01/10 07:16:10;;;;;;;248.27;238.17;;;4.10;99.90;;;;;;5003755;28;20493;-83
2023/01/10 07:18:38;;;;;;;261.13;249.50;;;4.10;99.90;;;;;;5003889;28;20529;-84
2023/01/10 07:21:05;;;;;;;285.83;274.70;;;4.00;99.90;;;;;;5003949;28;20473;-85
2023/01/10 07:23:32;;;;;;;300.03;286.50;;;3.90;99.90;;;;;;5003802;28;20450;-84
2023/01/10 07:26:02;;;;;;;343.30;328.67;;;3.90;99.90;;;;;;5003368;28;20474;-83
2023/01/10 07:28:28;;;;;;;348.37;331.60;;;3.90;99.90;;;;;;5004766;28;20453;-83
2023/01/10 07:30:59;;;;;;;373.77;356.73;;;3.90;99.90;;;;;;5003644;28;20452;-84
2023/01/10 07:33:27;;;;;;;406.90;388.80;;;3.90;99.90;;;;;;5003949;28;20485;-83
2023/01/10 07:35:54;;;;;;;425.40;405.97;;;3.90;99.90;;;;;;5003314;28;20485;-84
2023/01/10 07:38:21;;;;;;;440.40;420.77;;;3.80;99.90;;;;;;4992298;28;20832;-83
2023/01/10 07:40:47;;;;;;;415.90;396.80;;;3.80;99.90;;;;;;4984019;28;20485;-86
2023/01/10 07:43:14;;;;;;;439.40;420.43;;;3.80;99.90;;;;;;4983840;28;20981;-84
2023/01/10 07:45:41;;;;;;;431.93;412.87;;;3.90;99.90;;;;;;4994906;28;20473;-83
2023/01/10 07:48:09;;;;;;;441.97;420.17;;;3.90;99.90;;;;;;5002886;28;20841;-85
2023/01/10 07:50:37;;;;;;;413.50;394.80;;;3.90;99.90;;;;;;5004297;28;20450;-83
2023/01/10 07:53:06;;;;;;;416.73;398.63;;;4.00;99.90;;;;;;5002569;28;20450;-84
2023/01/10 07:55:35;;;;;;;403.60;384.97;;;4.00;99.90;;;;;;5002000;28;20470;-83
2023/01/10 07:58:02;;;;;;;393.17;375.53;;;3.90;99.90;;;;;;5002714;28;20457;-83
2023/01/10 08:00:28;;;;;;;429.13;409.77;;;3.90;99.90;;;;;;5000535;28;20586;-83
2023/01/10 08:02:59;;;;;;;430.70;410.40;;;3.90;99.90;;;;;;5000563;28;20461;-83
2023/01/10 08:05:26;;;;;;;429.53;409.43;;;3.90;99.90;;;;;;5001466;28;20481;-83
2023/01/10 08:07:55;;;;;;;436.13;416.53;;;3.90;99.90;;;;;;5002262;28;20446;-83
2023/01/10 08:10:21;;;;;;;458.43;438.13;;;3.90;99.90;;;;;;4999788;28;20446;-83
2023/01/10 08:12:50;;;;;;;451.53;431.07;;;3.90;99.90;;;;;;5002698;28;20457;-82
2023/01/10 08:15:16;;;;;;;490.98;467.27;;;3.90;99.90;;;;;;5002015;28;20483;-84
2023/01/10 08:17:43;;;;;;;460.37;439.57;;;3.90;99.90;;;;;;5003213;28;20578;-85
2023/01/10 08:20:11;;;;;;;465.27;444.17;;;3.90;99.90;;;;;;5003462;28;20549;-83
2023/01/10 08:22:38;;;;;;;475.80;453.90;;;3.90;99.90;;;;;;5003165;28;20465;-84
2023/01/10 08:25:06;;;;;;;456.00;436.30;;;4.00;99.90;;;;;;5002071;28;20478;-83
2023/01/10 08:27:33;;;;;;;440.77;421.07;;;4.00;99.90;;;;;;5002829;28;20457;-83
2023/01/10 08:30:00;;;;;;;429.07;410.23;;;4.10;99.90;;;;;;5003349;28;20458;-84
2023/01/10 08:32:26;;;;;;;412.77;394.63;;;4.10;99.90;;;;;;5003141;28;20450;-83
2023/01/10 08:34:53;;;;;;;414.33;395.33;;;4.10;99.90;;;;;;5002788;28;20466;-82
2023/01/10 08:37:20;;;;;;;395.93;378.20;;;4.10;99.90;;;;;;5002658;28;20834;-83
2023/01/10 08:39:47;;;;;;;374.10;358.10;;;4.20;99.90;;;;;;5002842;28;20454;-84
2023/01/10 08:42:15;;;;;;;352.97;337.90;;;4.20;99.90;;;;;;5003151;28;20478;-83
2023/01/10 08:44:42;;;;;;;352.17;336.13;;;4.30;99.90;;;;;;5003472;28;20922;-84
2023/01/10 08:47:09;;;;;;;335.87;321.77;;;4.30;99.90;;;;;;5003520;28;20518;-84
2023/01/10 08:49:36;;;;;;;307.47;294.17;;;4.40;99.90;;;;;;5003750;28;20465;-83
2023/01/10 08:52:03;;;;;;;272.90;260.87;;;4.50;99.90;;;;;;5003372;28;20461;-83
2023/01/10 08:54:29;;;;;;;251.30;240.90;;;4.60;99.90;;;;;;5003100;28;20451;-83
2023/01/10 08:56:56;;;;;;;236.17;223.67;;;4.60;99.90;;;;;;5002933;28;20464;-84
2023/01/10 08:59:24;;;;;;;236.60;226.80;;;4.70;99.90;;;;;;5003295;28;20450;-84
2023/01/10 09:01:51;;;;;;;213.80;205.60;;;4.70;99.90;;;;;;5002752;28;20492;-84
2023/01/10 09:04:18;;;;;;;212.10;202.67;;;4.80;99.90;;;;;;5003299;28;20450;-84
2023/01/10 09:06:44;;;;;;;186.00;178.80;;;4.80;99.90;;;;;;5005782;28;20475;-83
2023/01/10 09:09:11;;;;;;;168.73;162.23;;;4.90;99.90;;;;;;5007353;28;20446;-83
2023/01/10 09:11:38;;;;;;;163.20;155.70;;;5.00;99.90;;;;;;5006995;28;20952;-84
2023/01/10 09:14:06;;;;;;;157.13;150.50;;;5.00;99.90;;;;;;5007797;28;20958;-84
2023/01/10 09:16:34;;;;;;;139.73;133.03;;;5.10;99.90;;;;;;5006591;28;20477;-84
2023/01/10 09:19:01;;;;;;;125.60;119.43;;;5.30;99.90;;;;;;5006511;28;20460;-83
2023/01/10 09:21:27;;;;;;;119.80;114.43;;;5.40;99.90;;;;;;5006749;28;20695;-84
2023/01/10 09:23:54;;;;;;;120.87;116.43;;;5.40;99.90;;;;;;5006461;28;20529;-84
2023/01/10 09:26:21;;;;;;;112.90;108.33;;;5.50;99.90;;;;;;5006632;28;20478;-84
2023/01/10 09:28:48;;;;;;;107.70;102.70;;;5.70;99.90;;;;;;5007078;28;20960;-83
2023/01/10 09:31:15;;;;;;;84.27;79.77;;;5.90;99.90;;;;;;5007277;28;20450;-84
2023/01/10 09:33:43;;;;;;;65.10;60.33;;;6.00;99.90;;;;;;5006963;28;20458;-83
2023/01/10 09:36:12;;;;;;;40.33;38.33;;;6.20;99.90;;;;;;5006613;28;20474;-82
2023/01/10 09:38:39;;;;;;;23.00;21.00;;;6.30;99.90;;;;;;5007301;28;20458;-84
2023/01/10 09:41:19;;;;;;;22.20;13.30;;;6.40;99.90;;;;;;5006749;28;20478;-83
2023/01/10 09:43:57;;;;;;;17.70;10.00;;;6.50;99.90;;;;;;5006915;28;20454;-83
2023/01/10 09:46:34;;;;;;;15.10;6.50;;;6.60;99.90;;;;;;5007318;28;20992;-83
2023/01/10 09:49:14;;;;;;;14.77;4.23;;;6.60;99.90;;;;;;5007615;28;20493;-86
2023/01/10 09:51:43;;;;;;;19.50;4.60;;;6.70;99.90;;;;;;5007318;28;20468;-85
2023/01/10 09:54:15;;;;;;;23.30;4.23;;;6.70;99.90;;;;;;5006544;28;20450;-81
2023/01/10 09:56:42;;;;;;;24.17;4.80;;;6.70;99.90;;;;;;5006271;28;20485;-83
2023/01/10 09:59:15;;;;;;;16.37;5.20;;;6.70;99.90;;;;;;5007331;28;20960;-84
2023/01/10 10:01:42;;;;;;;23.47;4.70;;;6.80;99.90;;;;;;5007016;28;20474;-82
2023/01/10 10:04:19;;;;;;;17.70;5.50;;;7.00;99.90;;;;;;5007401;28;20464;-84
2023/01/10 10:06:49;;;;;;;7.90;3.43;;;6.90;99.90;;;;;;5006736;28;20470;-84
2023/01/10 10:09:21;;;;;;;15.40;3.60;;;7.10;99.90;;;;;;5007870;28;20446;-84
2023/01/10 10:12:01;;;;;;;32.07;5.93;;;7.20;99.90;;;;;;5007071;28;20462;-85
2023/01/10 10:14:43;;;;;;;14.80;6.40;;;7.20;99.90;;;;;;5006569;28;20461;-84
2023/01/10 10:17:26;;;;;;;19.57;6.40;;;7.20;99.90;;;;;;5005664;28;20486;-84
2023/01/10 10:20:06;;;;;;;17.30;8.77;;;7.40;99.90;;;;;;5007027;28;20464;-84
2023/01/10 10:22:43;;;;;;;13.10;5.53;;;7.40;99.90;;;;;;5006692;28;20487;-84
2023/01/10 10:25:25;;;;;;;27.83;8.27;;;7.50;99.90;;;;;;5005633;28;20477;-84
2023/01/10 10:28:09;;;;;;;14.60;5.87;;;7.60;99.90;;;;;;5006165;28;20449;-84
2023/01/10 10:30:47;;;;;;;19.90;6.43;;;7.70;99.90;;;;;;5006404;28;20438;-85
2023/01/10 10:33:34;;;;;;;12.97;4.83;;;7.80;99.90;;;;;;5006005;28;20450;-84
2023/01/10 10:36:08;;;;;;;26.43;5.60;;;7.80;99.90;;;;;;5004081;28;20480;-86
2023/01/10 10:38:38;;;;;;;15.97;4.60;;;8.00;99.90;;;;;;5005056;28;20464;-85
2023/01/10 10:41:15;;;;;;;12.00;4.37;;;8.00;99.90;;;;;;5004863;28;20453;-85
2023/01/10 10:43:45;;;;;;;20.10;4.03;;;8.00;99.90;;;;;;5002984;28;20462;-86
2023/01/10 10:46:14;;;;;;;13.70;3.80;;;8.10;99.90;;;;;;5004541;28;20478;-84
2023/01/10 10:48:46;;;;;;;14.20;4.43;;;8.20;99.90;;;;;;5004641;28;20458;-85
2023/01/10 10:51:19;;;;;;;18.13;4.43;;;8.20;99.90;;;;;;5003935;28;20493;-86
2023/01/10 10:53:47;;;;;;;13.73;3.20;;;8.20;99.90;;;;;;5004579;28;20446;-84
2023/01/10 10:56:16;;;;;;;7.70;3.60;;;8.30;99.90;;;;;;5003865;28;20482;-85
2023/01/10 10:58:48;;;;;;;12.20;4.13;;;8.30;99.90;;;;;;5002438;28;20438;-86
2023/01/10 11:01:15;;;;;;;11.03;3.70;;;8.20;99.90;;;;;;5005308;28;20509;-84
2023/01/10 11:03:47;;;;;;;17.45;3.42;;;8.30;99.90;;;;;;5004054;28;20459;-84
2023/01/10 11:06:16;;;;;;;19.43;3.60;;;8.40;99.90;;;;;;5004531;28;20473;-85
2023/01/10 11:08:46;;;;;;;18.40;3.87;;;8.40;99.90;;;;;;5005558;28;20462;-84
2023/01/10 11:11:20;;;;;;;13.60;3.33;;;8.50;99.90;;;;;;5004718;28;20468;-84
2023/01/10 11:13:52;;;;;;;12.07;2.80;;;8.50;99.90;;;;;;5005006;28;20823;-85
2023/01/10 11:16:27;;;;;;;17.37;3.87;;;8.50;99.90;;;;;;5005148;28;21006;-84
2023/01/10 11:19:15;;;;;;;18.63;2.90;;;8.60;99.90;;;;;;5004968;28;20457;-86
2023/01/10 11:21:49;;;;;;;13.43;3.80;;;8.50;99.90;;;;;;5005184;28;20574;-86
2023/01/10 11:24:27;;;;;;;9.27;2.58;;;8.50;99.90;;;;;;5005076;28;20495;-85
2023/01/10 11:26:54;;;;;;;19.73;3.10;;;8.60;99.90;;;;;;5005032;28;20202;-85
2023/01/10 11:29:25;;;;;;;25.20;3.73;;;8.70;99.90;;;;;;5004918;28;20456;-84
2023/01/10 11:31:54;;;;;;;16.10;3.53;;;8.70;99.90;;;;;;5004227;28;20447;-84
2023/01/10 11:34:25;;;;;;;14.10;2.40;;;8.80;99.90;;;;;;5005639;28;21000;-86
2023/01/10 11:37:00;;;;;;;22.53;4.03;;;8.90;99.90;;;;;;5005201;28;20478;-86
2023/01/10 11:39:29;;;;;;;15.70;3.10;;;9.00;99.90;;;;;;5004880;28;20460;-84
2023/01/10 11:41:58;;;;;;;8.63;2.37;;;9.10;99.90;;;;;;5004785;28;20484;-85
2023/01/10 11:44:26;;;;;;;17.20;2.73;;;9.10;99.90;;;;;;5003480;28;20974;-85
2023/01/10 11:46:56;;;;;;;13.53;2.73;;;9.20;99.90;;;;;;5004660;28;20545;-84
2023/01/10 11:49:31;;;;;;;11.90;3.60;;;9.20;99.90;;;;;;5005893;28;20454;-85
2023/01/10 11:52:04;;;;;;;14.43;2.93;;;9.30;99.90;;;;;;5006115;28;20446;-83
2023/01/10 11:54:32;;;;;;;11.93;2.23;;;9.40;99.90;;;;;;5006212;28;20457;-85
2023/01/10 11:57:03;;;;;;;16.03;2.60;;;9.40;99.90;;;;;;5006935;28;20450;-85
2023/01/10 11:59:31;;;;;;;10.77;3.07;;;9.40;99.90;;;;;;5007948;28;20446;-84
2023/01/10 12:02:03;;;;;;;10.80;2.27;;;9.40;99.90;;;;;;5008706;28;20504;-84
2023/01/10 12:04:32;;;;;;;13.93;2.63;;;9.50;99.90;;;;;;5007544;28;20537;-84
2023/01/10 12:07:04;;;;;;;11.80;2.53;;;9.50;99.50;;;;;;5006915;28;20536;-84
2023/01/10 12:09:38;;;;;;;10.17;2.27;;;9.60;99.90;;;;;;5003669;28;20454;-84
2023/01/10 12:12:06;;;;;;;13.60;3.07;;;9.40;98.30;;;;;;5005613;28;20465;-85
2023/01/10 12:14:33;;;;;;;9.90;2.07;;;9.40;99.90;;;;;;5004386;28;20446;-85
2023/01/10 12:17:01;;;;;;;8.20;2.00;;;9.40;99.20;;;;;;5005231;28;20467;-85
2023/01/10 12:19:29;;;;;;;10.97;2.27;;;9.40;99.90;;;;;;5004151;28;20521;-85
2023/01/10 12:22:02;;;;;;;7.47;1.50;;;9.30;98.30;;;;;;5001347;28;21018;-85
2023/01/10 12:24:34;;;;;;;11.40;2.60;;;9.30;99.80;;;;;;5002150;28;20450;-86
2023/01/10 12:27:06;;;;;;;9.60;2.43;;;9.30;98.80;;;;;;5002305;28;21015;-86
2023/01/10 12:29:36;;;;;;;9.93;3.43;;;9.20;99.40;;;;;;5001559;28;20494;-83
2023/01/10 12:32:07;;;;;;;7.23;1.53;;;9.20;99.50;;;;;;5002807;28;20456;-85
2023/01/10 12:34:41;;;;;;;11.17;2.60;;;9.20;99.10;;;;;;5003270;28;20457;-84
2023/01/10 12:37:20;;;;;;;3.90;1.30;;;9.10;99.20;;;;;;5021007;28;20449;-85
2023/01/10 12:39:51;;;;;;;7.97;3.23;;;9.10;98.80;;;;;;5020765;28;20459;-87
2023/01/10 12:45:16;;;;;;;33.87;3.13;;;9.00;98.30;;;;;;5026419;28;20507;-85
2023/01/10 12:47:54;;;;;;;7.23;3.30;;;9.00;99.80;;;;;;5027342;28;20542;-85
2023/01/10 12:50:24;;;;;;;10.10;2.40;;;8.90;98.90;;;;;;5027025;28;20453;-85
2023/01/10 12:52:57;;;;;;;5.20;1.37;;;8.90;99.00;;;;;;5026222;28;20457;-85